| time (UTC) | temp F | wind direction | speed MPH | gust MPH | rain 1hr in | rain 24hr in | rain mn in | humidity % | barometer mb |
| 20260831191102 | 105 | 110 | 5.0 | 9.0 | 0.00 | 0.00 | 0.00 | 25 | 1055.2 |
| 20260831185603 | 103 | 120 | 4.0 | 10.0 | 0.00 | 0.00 | 0.00 | 27 | 1055.5 |
| 20260831184103 | 103 | 180 | 7.0 | 8.0 | 0.00 | 0.00 | 0.00 | 27 | 1055.5 |
| 20260831182602 | 102 | 251 | 6.0 | 9.0 | 0.00 | 0.00 | 0.00 | 28 | 1055.9 |
| 20260831181102 | 102 | 89 | 3.0 | 11.0 | 0.00 | 0.00 | 0.00 | 29 | 1055.9 |
| 20260831175603 | 102 | 182 | 4.0 | 9.0 | 0.00 | 0.00 | 0.00 | 29 | 1055.9 |
| 20260831174602 | 102 | 192 | 9.0 | 11.0 | 0.00 | 0.00 | 0.00 | 31 | 1056.2 |
| 20260831164602 | 99 | 32 | 8.0 | 12.0 | 0.00 | 0.00 | 0.00 | 35 | 1056.6 |
| 20260831163102 | 98 | 208 | 9.0 | 9.0 | 0.00 | 0.00 | 0.00 | 35 | 1056.6 |
| 20260831161602 | 98 | 179 | 6.0 | 11.0 | 0.00 | 0.00 | 0.00 | 36 | 1056.6 |
| 20260831154602 | 96 | 289 | 7.0 | 14.0 | 0.00 | 0.00 | 0.00 | 38 | 1056.6 |
| 20260831153105 | 96 | 211 | 7.0 | 11.0 | 0.00 | 0.00 | 0.00 | 39 | 1056.6 |
| 20260831151601 | 94 | 199 | 3.0 | 13.0 | 0.00 | 0.00 | 0.00 | 40 | 1056.9 |
| 20260831145102 | 93 | 256 | 7.0 | 10.0 | 0.00 | 0.00 | 0.00 | 42 | 1056.9 |
| 20260831143602 | 92 | 169 | 10.0 | 13.0 | 0.00 | 0.00 | 0.00 | 43 | 1056.9 |
| 20260831142102 | 90 | 207 | 5.0 | 11.0 | 0.00 | 0.00 | 0.00 | 45 | 1056.9 |
| 20260831140602 | 89 | 196 | 2.0 | 8.0 | 0.00 | 0.00 | 0.00 | 46 | 1056.9 |
| 20260831135101 | 88 | 153 | 7.0 | 8.0 | 0.00 | 0.00 | 0.00 | 47 | 1056.9 |
| 20260831133602 | 86 | 198 | 5.0 | 6.0 | 0.00 | 0.00 | 0.00 | 48 | 1056.6 |
| 20260831132102 | 85 | 230 | 6.0 | 8.0 | 0.00 | 0.00 | 0.00 | 50 | 1056.6 |
| 20260831130602 | 83 | 183 | 3.0 | 8.0 | 0.00 | 0.00 | 0.00 | 51 | 1056.6 |
| 20260831125102 | 82 | 182 | 3.0 | 6.0 | 0.00 | 0.00 | 0.00 | 52 | 1056.2 |
| 20260831123602 | 80 | 152 | 2.0 | 7.0 | 0.00 | 0.00 | 0.00 | 55 | 1055.9 |
| 20260831122601 | 80 | 202 | 5.0 | 6.0 | 0.00 | 0.00 | 0.00 | 53 | 1055.9 |
| 20260831121102 | 80 | 178 | 2.0 | 6.0 | 0.00 | 0.00 | 0.00 | 53 | 1055.5 |
| 20260831115603 | 80 | 154 | 3.0 | 7.0 | 0.00 | 0.00 | 0.00 | 53 | 1055.5 |
| 20260831114102 | 80 | 195 | 3.0 | 5.0 | 0.00 | 0.00 | 0.00 | 52 | 1055.2 |
| 20260831113101 | 80 | 192 | 3.0 | 4.0 | 0.00 | 0.00 | 0.00 | 52 | 1055.2 |
| 20260831104602 | 81 | 222 | 3.0 | 7.0 | 0.00 | 0.00 | 0.00 | 50 | 1054.5 |
| 20260831103601 | 81 | 167 | 3.0 | 8.0 | 0.00 | 0.00 | 0.00 | 50 | 1054.5 |
| 20260831102102 | 82 | 115 | 2.0 | 7.0 | 0.00 | 0.00 | 0.00 | 49 | 1054.5 |
| 20260831100602 | 82 | 143 | 3.0 | 8.0 | 0.00 | 0.00 | 0.00 | 48 | 1054.5 |
| 20260831095102 | 83 | 212 | 4.0 | 8.0 | 0.00 | 0.00 | 0.00 | 47 | 1054.2 |
| 20260831092102 | 84 | 170 | 3.0 | 11.0 | 0.00 | 0.00 | 0.00 | 46 | 1054.2 |
| 20260831090602 | 84 | 86 | 6.0 | 10.0 | 0.00 | 0.00 | 0.00 | 45 | 1054.2 |
| 20260831085102 | 84 | 256 | 12.0 | 13.0 | 0.00 | 0.00 | 0.00 | 45 | 1053.8 |
| 20260831083602 | 85 | 239 | 8.0 | 10.0 | 0.00 | 0.00 | 0.00 | 45 | 1054.2 |
| 20260831082104 | 85 | 158 | 6.0 | 13.0 | 0.00 | 0.00 | 0.00 | 44 | 1054.2 |
| 20260831081102 | 86 | 202 | 7.0 | 12.0 | 0.00 | 0.00 | 0.00 | 44 | 1054.2 |
| 20260831075602 | 86 | 178 | 6.0 | 11.0 | 0.00 | 0.00 | 0.00 | 43 | 1054.2 |
| 20260831072601 | 86 | 143 | 3.0 | 7.0 | 0.00 | 0.00 | 0.00 | 42 | 1053.8 |
| 20260831071102 | 86 | 141 | 3.0 | 8.0 | 0.00 | 0.00 | 0.00 | 41 | 1053.8 |
| 20260831065602 | 87 | 128 | 4.0 | 10.0 | 0.00 | 0.00 | 0.00 | 40 | 1053.8 |
| 20260831064104 | 87 | 164 | 8.0 | 10.0 | 0.00 | 0.00 | 0.00 | 40 | 1053.8 |
| 20260831063101 | 87 | 204 | 3.0 | 11.0 | 0.00 | 0.00 | 0.00 | 40 | 1053.8 |
| 20260831061602 | 88 | 174 | 5.0 | 10.0 | 0.00 | 0.00 | 0.00 | 39 | 1053.8 |
| 20260831054602 | 88 | 167 | 7.0 | 8.0 | 0.00 | 0.00 | 0.00 | 39 | 1053.8 |
| 20260831053102 | 88 | 213 | 5.0 | 14.0 | 0.00 | 0.00 | 0.00 | 39 | 1053.5 |
| 20260831051602 | 88 | 155 | 9.0 | 9.0 | 0.00 | 0.00 | 0.00 | 40 | 1053.5 |
| 20260831044602 | 89 | 178 | 7.0 | 12.0 | 0.00 | 0.00 | 0.00 | 40 | 1053.5 |
| 20260831043102 | 89 | 184 | 7.0 | 10.0 | 0.00 | 0.00 | 0.00 | 40 | 1053.5 |
| 20260831041601 | 89 | 198 | 7.0 | 9.0 | 0.00 | 0.00 | 0.00 | 39 | 1053.5 |
| 20260831035101 | 90 | 191 | 3.0 | 9.0 | 0.00 | 0.00 | 0.00 | 38 | 1053.5 |
| 20260831033602 | 91 | 173 | 8.0 | 10.0 | 0.00 | 0.00 | 0.00 | 37 | 1053.5 |
| 20260831030602 | 92 | 147 | 7.0 | 10.0 | 0.00 | 0.00 | 0.00 | 37 | 1053.2 |
| 20260831025102 | 92 | 177 | 9.0 | 11.0 | 0.00 | 0.00 | 0.00 | 37 | 1053.2 |
| 20260831024102 | 92 | 195 | 5.0 | 10.0 | 0.00 | 0.00 | 0.00 | 36 | 1052.8 |
| 20260831022602 | 93 | 227 | 7.0 | 12.0 | 0.00 | 0.00 | 0.00 | 35 | 1052.5 |
| 20260831021102 | 93 | 165 | 13.0 | 13.0 | 0.00 | 0.00 | 0.00 | 34 | 1052.2 |
| 20260831015602 | 94 | 170 | 5.0 | 9.0 | 0.00 | 0.00 | 0.00 | 34 | 1052.2 |
| 20260831014102 | 95 | 124 | 4.0 | 9.0 | 0.00 | 0.00 | 0.00 | 33 | 1051.8 |
| 20260831012602 | 95 | 145 | 4.0 | 8.0 | 0.00 | 0.00 | 0.00 | 32 | 1051.8 |
| 20260831011202 | 96 | 165 | 3.0 | 8.0 | 0.00 | 0.00 | 0.00 | 31 | 1051.5 |
| 20260831004602 | 98 | 178 | 10.0 | 13.0 | 0.00 | 0.00 | 0.00 | 29 | 1051.5 |
| 20260831001603 | 100 | 218 | 11.0 | 11.0 | 0.00 | 0.00 | 0.00 | 28 | 1051.5 |
| 20260831000602 | 100 | 168 | 8.0 | 9.0 | 0.00 | 0.00 | 0.00 | 27 | 1051.5 |
| 20260830235102 | 101 | 182 | 6.0 | 14.0 | 0.00 | 0.00 | 0.00 | 27 | 1051.5 |
| 20260830233603 | 101 | 186 | 6.0 | 11.0 | 0.00 | 0.00 | 0.00 | 27 | 1051.5 |
| 20260830232602 | 102 | 176 | 7.0 | 13.0 | 0.00 | 0.00 | 0.00 | 26 | 1051.5 |
| 20260830231102 | 103 | 127 | 10.0 | 11.0 | 0.00 | 0.00 | 0.00 | 26 | 1051.5 |
| 20260830224102 | 103 | 194 | 3.0 | 10.0 | 0.00 | 0.00 | 0.00 | 25 | 1051.5 |
| 20260830222604 | 103 | 147 | 7.0 | 14.0 | 0.00 | 0.00 | 0.00 | 25 | 1051.5 |
| 20260830221102 | 104 | 194 | 11.0 | 11.0 | 0.00 | 0.00 | 0.00 | 25 | 1051.5 |
| 20260830215602 | 104 | 184 | 6.0 | 11.0 | 0.00 | 0.00 | 0.00 | 25 | 1051.5 |
| 20260830214102 | 104 | 126 | 10.0 | 13.0 | 0.00 | 0.00 | 0.00 | 25 | 1051.8 |
| 20260830212602 | 104 | 187 | 10.0 | 13.0 | 0.00 | 0.00 | 0.00 | 25 | 1051.8 |
| 20260830211102 | 104 | 223 | 10.0 | 11.0 | 0.00 | 0.00 | 0.00 | 25 | 1052.2 |
| 20260830205602 | 105 | 166 | 9.0 | 13.0 | 0.00 | 0.00 | 0.00 | 25 | 1052.5 |
| 20260830202601 | 106 | 207 | 7.0 | 11.0 | 0.00 | 0.00 | 0.00 | 25 | 1052.8 |
| 20260830201102 | 105 | 220 | 6.0 | 11.0 | 0.00 | 0.00 | 0.00 | 26 | 1052.8 |
| 20260830194602 | 104 | 289 | 7.0 | 9.0 | 0.00 | 0.00 | 0.00 | 26 | 1053.2 |
| 20260830193102 | 104 | 206 | 8.0 | 14.0 | 0.00 | 0.00 | 0.00 | 26 | 1053.2 |